Bookmark and Share
Track history (hours):
 

Athina V

Last reported at 2013-Sep-07 10:24 UTC. Time now 2014-Apr-21 04:46 UTC.
Position N 39°40' E 001°46'.
Warning: this ship's position is months out of date.

Length 19 m; draft 3 m.

Type: Sailing vessel. MMSI: 256655000.

NotesDate/timePositionNaut miles runAvg speedWind from/ knotsBaromVisibWave heightAir tempDewpointWater temp
2013-Sep-07 10:24N 39°40' E 001°46'11 8.6
2013-Sep-07 09:09N 39°43' E 001°59'5 7.7
2013-Sep-07 08:32N 39°44' E 002°05'7 6.8
2013-Sep-07 07:33N 39°45' E 002°14'6 5.9
2013-Sep-07 06:33N 39°46' E 002°21'7 6.7
2013-Sep-07 05:33N 39°47' E 002°30'6 6.3
2013-Sep-07 04:33N 39°48' E 002°38'3 0.1
2013-Sep-05 15:16N 39°48' E 002°42'0 0.0
2013-Sep-05 14:33N 39°48' E 002°42'2 1.7
2013-Sep-05 13:33N 39°49' E 002°42'30 5.6
2013-Sep-05 08:09N 39°55' E 003°21'3 5.8
2013-Sep-05 07:33N 39°53' E 003°26'6 6.1
2013-Sep-05 06:32N 39°51' E 003°33'13 6.5
2013-Sep-05 04:30N 39°46' E 003°49'156 6.0
2013-Sep-04 02:33N 38°57' E 007°00'14 5.7
2013-Sep-04 00:08N 38°55' E 007°18'10 5.7
2013-Sep-03 22:24N 38°53' E 007°30'4 4.5
2013-Sep-03 21:31N 38°53' E 007°35'22 7.0
2013-Sep-03 18:21N 38°51' E 008°04'  

Dump ship's entire track history

sailing weather and tide predictions

Athina V — 9H8661 — position and weather